createdAt,value
2022-11-12T00:00:11.578Z,23.70
2022-11-12T00:02:11.581Z,23.58
2022-11-12T00:04:11.532Z,23.70
2022-11-12T00:06:11.592Z,23.62
2022-11-12T00:08:11.682Z,23.68
2022-11-12T00:10:11.553Z,23.63
2022-11-12T00:12:11.489Z,23.63
2022-11-12T00:14:11.823Z,23.73
2022-11-12T00:16:11.575Z,23.69
2022-11-12T00:18:11.581Z,23.63
2022-11-12T00:20:11.486Z,23.58
2022-11-12T00:22:11.573Z,23.57
2022-11-12T00:24:11.608Z,23.63
2022-11-12T00:26:11.635Z,23.58
2022-11-12T00:28:11.601Z,23.68
2022-11-12T00:30:11.598Z,23.61
2022-11-12T00:32:11.612Z,23.61
2022-11-12T00:34:11.458Z,23.63
2022-11-12T00:36:11.474Z,23.65
2022-11-12T00:38:11.632Z,23.65
2022-11-12T00:40:11.629Z,23.56
2022-11-12T00:42:11.499Z,23.58
2022-11-12T00:44:11.555Z,23.67
2022-11-12T00:46:11.614Z,23.66
2022-11-12T00:48:11.544Z,23.63
2022-11-12T00:50:11.527Z,23.65
2022-11-12T00:52:11.544Z,23.58
2022-11-12T00:54:11.604Z,23.62
2022-11-12T00:56:11.633Z,23.65
2022-11-12T00:58:11.618Z,23.59
2022-11-12T01:00:11.632Z,23.64
2022-11-12T01:02:11.786Z,23.62
2022-11-12T01:04:11.781Z,23.62
2022-11-12T01:06:11.537Z,23.55
2022-11-12T01:08:11.672Z,23.59
2022-11-12T01:10:11.657Z,23.63
2022-11-12T01:12:11.702Z,23.57
2022-11-12T01:14:11.550Z,23.55
2022-11-12T01:16:11.650Z,23.54
2022-11-12T01:18:11.591Z,23.53
2022-11-12T01:20:11.636Z,23.63
2022-11-12T01:22:11.692Z,23.68
2022-11-12T01:24:11.664Z,23.54
2022-11-12T01:26:11.664Z,23.54
2022-11-12T01:28:11.609Z,23.53
2022-11-12T01:30:11.527Z,23.53
2022-11-12T01:32:11.685Z,23.54
2022-11-12T01:34:11.594Z,23.52
2022-11-12T01:36:11.668Z,23.53
2022-11-12T01:38:11.621Z,23.47
2022-11-12T01:40:11.644Z,23.62
2022-11-12T01:42:11.708Z,23.62
2022-11-12T01:44:11.691Z,23.58
2022-11-12T01:46:11.709Z,23.65
2022-11-12T01:48:11.697Z,23.58
2022-11-12T01:50:11.610Z,23.57
2022-11-12T01:52:11.936Z,23.61
2022-11-12T01:54:11.712Z,23.72
2022-11-12T01:56:11.642Z,23.70
2022-11-12T01:58:11.645Z,23.66
2022-11-12T02:00:11.614Z,23.65
2022-11-12T02:02:11.638Z,23.59
2022-11-12T02:04:11.701Z,23.59
2022-11-12T02:06:11.789Z,23.63
2022-11-12T02:08:11.800Z,23.58
2022-11-12T02:10:11.716Z,23.62
2022-11-12T02:12:11.714Z,23.58
2022-11-12T02:14:11.746Z,23.59
2022-11-12T02:16:11.731Z,23.67
2022-11-12T02:18:11.743Z,23.57
2022-11-12T02:20:11.783Z,23.68
2022-11-12T02:22:11.641Z,23.65
2022-11-12T02:24:11.740Z,23.59
2022-11-12T02:26:11.720Z,23.58
2022-11-12T02:28:11.748Z,23.58
2022-11-12T02:30:11.741Z,23.62
2022-11-12T02:32:11.750Z,23.59
2022-11-12T02:34:11.748Z,23.62
2022-11-12T02:36:11.750Z,23.58
2022-11-12T02:38:11.738Z,23.62
2022-11-12T02:40:11.734Z,23.55
2022-11-12T02:42:11.757Z,23.56
2022-11-12T02:44:11.774Z,23.58
2022-11-12T02:46:11.787Z,23.58
2022-11-12T02:48:16.481Z,23.56
2022-11-12T02:50:11.746Z,23.53
2022-11-12T02:52:11.745Z,23.63
2022-11-12T02:54:11.942Z,23.53
2022-11-12T02:56:11.746Z,23.59
2022-11-12T02:58:11.687Z,23.55
2022-11-12T03:00:11.663Z,23.55
2022-11-12T03:02:11.780Z,23.65
2022-11-12T03:04:11.760Z,23.54
2022-11-12T03:06:11.651Z,23.58
2022-11-12T03:08:11.781Z,23.54
2022-11-12T03:10:11.780Z,23.55
2022-11-12T03:12:11.699Z,23.63
2022-11-12T03:14:11.799Z,23.55
2022-11-12T03:16:11.778Z,23.53
2022-11-12T03:18:11.851Z,23.55
2022-11-12T03:20:11.778Z,23.63
2022-11-12T03:22:11.702Z,23.54
2022-11-12T03:24:11.788Z,23.52
2022-11-12T03:26:11.780Z,23.57
2022-11-12T03:28:11.804Z,23.51
2022-11-12T03:30:11.832Z,23.57
2022-11-12T03:32:11.794Z,23.53
2022-11-12T03:34:11.793Z,23.53
2022-11-12T03:36:11.820Z,23.58
2022-11-12T03:38:11.818Z,23.53
2022-11-12T03:40:11.786Z,23.54
2022-11-12T03:42:11.794Z,23.53
2022-11-12T03:44:11.798Z,23.53
2022-11-12T03:46:11.734Z,23.58
2022-11-12T03:48:11.721Z,23.50
2022-11-12T03:50:11.849Z,23.59
2022-11-12T03:52:11.791Z,23.53
2022-11-12T03:54:11.832Z,23.53
2022-11-12T03:56:11.816Z,23.55
2022-11-12T03:58:11.933Z,23.53
2022-11-12T04:00:11.667Z,23.53
2022-11-12T04:02:11.897Z,23.49
2022-11-12T04:04:11.798Z,23.50
2022-11-12T04:06:11.730Z,23.53
2022-11-12T04:08:11.842Z,23.53
2022-11-12T04:10:11.865Z,23.50
2022-11-12T04:12:11.742Z,23.52
2022-11-12T04:14:11.929Z,23.52
2022-11-12T04:16:11.841Z,23.53
2022-11-12T04:18:11.692Z,23.46
2022-11-12T04:20:11.832Z,23.53
2022-11-12T04:22:11.867Z,23.50
2022-11-12T04:24:11.847Z,23.51
2022-11-12T04:26:11.848Z,23.53
2022-11-12T04:28:11.867Z,23.53
2022-11-12T04:30:11.803Z,23.48
2022-11-12T04:32:11.833Z,23.44
2022-11-12T04:34:11.876Z,23.53
2022-11-12T04:36:11.871Z,23.41
2022-11-12T04:38:11.880Z,23.48
2022-11-12T04:40:11.866Z,23.51
2022-11-12T04:42:11.895Z,23.38
2022-11-12T04:44:11.850Z,23.44
2022-11-12T04:46:11.776Z,23.41
2022-11-12T04:48:11.819Z,23.42
2022-11-12T04:50:11.812Z,23.38
2022-11-12T04:52:11.718Z,23.36
2022-11-12T04:54:11.883Z,23.42
2022-11-12T04:56:11.772Z,23.38
2022-11-12T04:58:11.919Z,23.39
2022-11-12T05:00:11.729Z,23.26
2022-11-12T05:02:11.939Z,23.23
2022-11-12T05:04:11.825Z,23.25
2022-11-12T05:06:11.792Z,23.19
2022-11-12T05:08:11.945Z,23.23
2022-11-12T05:10:11.891Z,23.11
2022-11-12T05:12:11.895Z,23.22
2022-11-12T05:14:11.923Z,23.11
2022-11-12T05:16:11.900Z,23.24
2022-11-12T05:18:11.914Z,23.20
2022-11-12T05:20:11.904Z,23.13
2022-11-12T05:22:27.415Z,23.09
2022-11-12T05:24:27.622Z,23.19
2022-11-12T05:26:11.961Z,23.24
2022-11-12T05:28:11.923Z,23.23
2022-11-12T05:30:11.799Z,23.29
2022-11-12T05:32:11.881Z,23.34
2022-11-12T05:34:11.934Z,23.45
2022-11-12T05:36:11.770Z,23.39
2022-11-12T05:38:11.943Z,23.42
2022-11-12T05:40:11.792Z,23.43
2022-11-12T05:42:13.887Z,23.34
2022-11-12T05:44:11.922Z,23.39
2022-11-12T05:46:11.778Z,23.39
2022-11-12T05:48:11.831Z,23.47
2022-11-12T05:50:11.956Z,23.41
2022-11-12T05:52:11.868Z,23.29
2022-11-12T05:54:11.963Z,23.31
2022-11-12T05:56:11.941Z,23.38
2022-11-12T05:58:11.969Z,23.45
2022-11-12T06:00:11.945Z,23.40
2022-11-12T06:02:11.904Z,23.37
2022-11-12T06:04:11.964Z,23.39
2022-11-12T06:06:11.924Z,23.34
2022-11-12T06:08:12.008Z,23.24
2022-11-12T06:10:16.044Z,23.20
2022-11-12T06:12:11.939Z,23.43
2022-11-12T06:14:11.888Z,23.45
2022-11-12T06:16:11.892Z,23.53
2022-11-12T06:18:11.826Z,23.50
2022-11-12T06:20:11.959Z,23.50
2022-11-12T06:22:11.989Z,23.54
2022-11-12T06:24:12.039Z,23.49
2022-11-12T06:26:11.856Z,23.47
2022-11-12T06:28:12.049Z,23.49
2022-11-12T06:30:12.009Z,23.50
2022-11-12T06:32:12.012Z,23.50
2022-11-12T06:34:11.842Z,23.47
2022-11-12T06:36:12.002Z,23.26
2022-11-12T06:38:12.005Z,23.44
2022-11-12T06:40:11.839Z,23.50
2022-11-12T06:42:12.017Z,23.54
2022-11-12T06:44:11.930Z,23.50
2022-11-12T06:46:12.004Z,23.45
2022-11-12T06:48:12.017Z,23.49
2022-11-12T06:50:11.967Z,23.51
2022-11-12T06:52:16.349Z,23.53
2022-11-12T06:54:12.024Z,23.50
2022-11-12T06:56:12.015Z,23.51
2022-11-12T06:58:12.051Z,23.54
2022-11-12T07:00:11.950Z,23.53
2022-11-12T07:02:11.903Z,23.53
2022-11-12T07:04:11.922Z,23.53
2022-11-12T07:06:12.025Z,23.63
2022-11-12T07:08:12.103Z,23.54
2022-11-12T07:10:12.030Z,23.58
2022-11-12T07:12:12.260Z,23.53
2022-11-12T07:14:11.991Z,23.66
2022-11-12T07:16:12.048Z,23.66
2022-11-12T07:18:11.888Z,23.66
2022-11-12T07:20:12.035Z,23.71
2022-11-12T07:22:12.156Z,23.69
2022-11-12T07:24:12.046Z,23.73
2022-11-12T07:26:12.110Z,23.77
2022-11-12T07:28:11.981Z,23.81
2022-11-12T07:30:11.967Z,23.90
2022-11-12T07:32:12.053Z,23.81
2022-11-12T07:34:11.975Z,23.82
2022-11-12T07:36:12.067Z,23.86
2022-11-12T07:38:12.230Z,23.98
2022-11-12T07:40:12.076Z,23.93
2022-11-12T07:42:12.101Z,23.96
2022-11-12T07:44:12.123Z,24.02
2022-11-12T07:46:12.101Z,23.97
2022-11-12T07:48:12.043Z,23.96
2022-11-12T07:50:12.076Z,24.02
2022-11-12T07:52:12.077Z,24.12
2022-11-12T07:54:12.043Z,24.11
2022-11-12T07:56:12.083Z,24.21
2022-11-12T07:58:12.000Z,24.28
2022-11-12T08:00:11.987Z,24.20
2022-11-12T08:02:12.115Z,24.23
2022-11-12T08:04:12.132Z,24.30
2022-11-12T08:06:12.103Z,24.34
2022-11-12T08:08:12.196Z,24.04
2022-11-12T08:10:12.123Z,24.41
2022-11-12T08:12:12.075Z,24.48
2022-11-12T08:14:12.079Z,24.55
2022-11-12T08:16:12.116Z,24.60
2022-11-12T08:18:12.122Z,24.41
2022-11-12T08:20:12.104Z,24.66
2022-11-12T08:22:12.125Z,24.59
2022-11-12T08:24:12.053Z,24.66
2022-11-12T08:26:12.135Z,24.66
2022-11-12T08:28:12.152Z,24.75
2022-11-12T08:30:12.128Z,24.67
2022-11-12T08:32:12.172Z,24.71
2022-11-12T08:34:12.441Z,24.66
2022-11-12T08:36:12.114Z,24.66
2022-11-12T08:38:12.116Z,24.74
2022-11-12T08:40:12.161Z,24.83
2022-11-12T08:42:12.134Z,24.72
2022-11-12T08:44:12.187Z,24.90
2022-11-12T08:46:12.051Z,24.85
2022-11-12T08:48:12.091Z,24.73
2022-11-12T08:50:12.046Z,24.80
2022-11-12T08:52:12.140Z,24.82
2022-11-12T08:54:12.137Z,24.80
2022-11-12T08:56:12.146Z,24.93
2022-11-12T08:58:12.198Z,24.84
2022-11-12T09:00:12.070Z,24.90
2022-11-12T09:02:12.071Z,24.81
2022-11-12T09:04:12.167Z,24.95
2022-11-12T09:06:11.990Z,24.65
2022-11-12T09:08:12.189Z,24.90
2022-11-12T09:10:12.163Z,24.94
2022-11-12T09:12:18.080Z,24.94
2022-11-12T09:14:12.192Z,24.95
2022-11-12T09:16:12.149Z,25.13
2022-11-12T09:18:12.176Z,25.19
2022-11-12T09:20:12.165Z,25.23
2022-11-12T09:22:12.184Z,25.26
2022-11-12T09:24:12.191Z,25.50
2022-11-12T09:26:12.193Z,25.52
2022-11-12T09:28:12.162Z,25.24
2022-11-12T09:30:12.183Z,25.40
2022-11-12T09:32:12.094Z,25.41
2022-11-12T09:34:12.089Z,25.50
2022-11-12T09:36:12.187Z,25.55
2022-11-12T09:38:12.217Z,25.65
2022-11-12T09:40:12.087Z,25.56
2022-11-12T09:42:12.042Z,25.58
2022-11-12T09:44:12.105Z,25.53
2022-11-12T09:46:27.147Z,25.35
2022-11-12T09:48:12.236Z,25.37
2022-11-12T09:50:12.175Z,25.37
2022-11-12T09:52:12.206Z,25.58
2022-11-12T09:54:12.136Z,25.52
2022-11-12T09:56:12.130Z,25.52
2022-11-12T09:58:12.246Z,25.43
2022-11-12T10:00:12.183Z,25.25
2022-11-12T10:02:12.186Z,25.23
2022-11-12T10:04:12.248Z,25.21
2022-11-12T10:06:14.659Z,25.31
2022-11-12T10:08:12.167Z,25.33
2022-11-12T10:10:12.072Z,25.05
2022-11-12T10:12:12.193Z,25.03
2022-11-12T10:14:12.094Z,25.39
2022-11-12T10:16:12.262Z,25.58
2022-11-12T10:18:12.232Z,25.86
2022-11-12T10:20:12.100Z,25.96
2022-11-12T10:22:12.219Z,26.02
2022-11-12T10:24:12.255Z,26.10
2022-11-12T10:26:12.119Z,26.07
2022-11-12T10:28:12.251Z,26.08
2022-11-12T10:30:12.310Z,26.11
2022-11-12T10:32:12.270Z,26.25
2022-11-12T10:34:12.257Z,26.53
2022-11-12T10:36:12.142Z,26.69
2022-11-12T10:38:12.225Z,26.89
2022-11-12T10:40:12.184Z,26.93
2022-11-12T10:42:12.238Z,26.79
2022-11-12T10:44:12.276Z,26.74
2022-11-12T10:46:12.121Z,26.11
2022-11-12T10:48:12.276Z,26.07
2022-11-12T10:50:12.277Z,25.95
2022-11-12T10:52:12.291Z,26.61
2022-11-12T10:54:12.280Z,26.66
2022-11-12T10:56:12.340Z,26.92
2022-11-12T10:58:12.280Z,26.95
2022-11-12T11:00:12.271Z,25.42
2022-11-12T11:02:12.316Z,25.41
2022-11-12T11:04:12.243Z,26.52
2022-11-12T11:06:12.302Z,26.66
2022-11-12T11:08:12.347Z,26.37
2022-11-12T11:10:12.275Z,27.00
2022-11-12T11:12:12.519Z,25.60
2022-11-12T11:14:12.296Z,25.47
2022-11-12T11:16:12.290Z,27.02
2022-11-12T11:18:12.259Z,25.23
2022-11-12T11:20:12.221Z,25.38
2022-11-12T11:22:12.280Z,25.44
2022-11-12T11:24:12.445Z,25.40
2022-11-12T11:26:12.322Z,26.48
2022-11-12T11:28:12.245Z,26.78
2022-11-12T11:30:12.314Z,25.80
2022-11-12T11:32:12.372Z,25.74
2022-11-12T11:34:12.379Z,25.75
2022-11-12T11:36:12.383Z,25.56
2022-11-12T11:38:12.285Z,25.58
2022-11-12T11:40:12.346Z,25.64
2022-11-12T11:42:12.328Z,25.58
2022-11-12T11:44:14.107Z,25.57
2022-11-12T11:46:12.224Z,25.63
2022-11-12T11:48:12.325Z,25.47
2022-11-12T11:50:12.239Z,27.42
2022-11-12T11:52:12.317Z,25.45
2022-11-12T11:54:12.205Z,26.08
2022-11-12T11:56:12.341Z,25.52
2022-11-12T11:58:12.253Z,27.14
2022-11-12T12:00:12.399Z,25.65
2022-11-12T12:02:12.360Z,25.52
2022-11-12T12:04:12.249Z,25.52
2022-11-12T12:06:12.356Z,25.49
2022-11-12T12:08:12.343Z,25.48
2022-11-12T12:10:12.386Z,25.47
2022-11-12T12:12:12.364Z,25.50
2022-11-12T12:14:12.378Z,25.42
2022-11-12T12:16:12.359Z,25.42
2022-11-12T12:18:12.363Z,25.46
2022-11-12T12:20:12.370Z,25.44
2022-11-12T12:22:12.346Z,25.52
2022-11-12T12:24:12.234Z,26.25
2022-11-12T12:26:12.237Z,25.51
2022-11-12T12:28:12.379Z,27.19
2022-11-12T12:30:12.363Z,25.62
2022-11-12T12:32:12.357Z,25.46
2022-11-12T12:34:12.689Z,25.47
2022-11-12T12:36:12.391Z,25.46
2022-11-12T12:38:12.399Z,25.52
2022-11-12T12:40:12.311Z,25.52
2022-11-12T12:42:12.278Z,25.46
2022-11-12T12:44:12.372Z,25.52
2022-11-12T12:46:12.306Z,25.47
2022-11-12T12:48:12.391Z,25.52
2022-11-12T12:50:12.362Z,25.50
2022-11-12T12:52:12.264Z,25.52
2022-11-12T12:54:12.397Z,25.51
2022-11-12T12:56:12.421Z,25.52
2022-11-12T12:58:12.395Z,26.16
2022-11-12T13:00:15.492Z,26.55
2022-11-12T13:02:12.330Z,25.47
2022-11-12T13:04:12.403Z,25.43
2022-11-12T13:06:12.406Z,25.49
2022-11-12T13:08:12.355Z,25.52
2022-11-12T13:10:12.409Z,25.51
2022-11-12T13:12:12.319Z,25.42
2022-11-12T13:14:12.253Z,25.52
2022-11-12T13:16:12.340Z,25.50
2022-11-12T13:18:17.068Z,25.47
2022-11-12T13:20:12.429Z,25.48
2022-11-12T13:22:12.422Z,25.46
2022-11-12T13:24:12.456Z,25.49
2022-11-12T13:26:12.270Z,25.52
2022-11-12T13:28:12.442Z,25.46
2022-11-12T13:30:12.410Z,25.47
2022-11-12T13:32:12.447Z,25.45
2022-11-12T13:34:12.420Z,25.49
2022-11-12T13:36:12.346Z,25.52
2022-11-12T13:38:12.466Z,25.44
2022-11-12T13:40:12.357Z,25.44
2022-11-12T13:42:12.446Z,26.50
2022-11-12T13:44:12.416Z,26.62
2022-11-12T13:46:12.466Z,26.77
2022-11-12T13:48:12.405Z,26.68
2022-11-12T13:50:12.464Z,26.63
2022-11-12T13:52:12.462Z,26.60
2022-11-12T13:54:12.476Z,26.49
2022-11-12T13:56:12.351Z,26.38
2022-11-12T13:58:12.615Z,26.37
2022-11-12T14:00:12.391Z,26.32
2022-11-12T14:02:12.437Z,26.22
2022-11-12T14:04:12.479Z,26.14
2022-11-12T14:06:12.480Z,26.19
2022-11-12T14:08:12.478Z,26.18
2022-11-12T14:10:12.493Z,26.09
2022-11-12T14:12:12.472Z,25.97
2022-11-12T14:14:12.488Z,26.09
2022-11-12T14:16:12.401Z,25.98
2022-11-12T14:18:12.406Z,25.99
2022-11-12T14:20:12.444Z,25.91
2022-11-12T14:22:12.438Z,25.89
2022-11-12T14:24:12.585Z,25.82
2022-11-12T14:26:12.476Z,25.83
2022-11-12T14:28:12.398Z,25.65
2022-11-12T14:30:12.513Z,25.74
2022-11-12T14:32:12.498Z,25.63
2022-11-12T14:34:12.493Z,25.52
2022-11-12T14:36:12.513Z,25.42
2022-11-12T14:38:12.517Z,25.42
2022-11-12T14:40:12.621Z,25.39
2022-11-12T14:42:12.415Z,25.29
2022-11-12T14:44:13.568Z,25.26
2022-11-12T14:46:12.510Z,25.24
2022-11-12T14:48:12.531Z,25.19
2022-11-12T14:50:12.523Z,25.12
2022-11-12T14:52:12.552Z,25.05
2022-11-12T14:54:12.528Z,25.05
2022-11-12T14:56:12.525Z,25.05
2022-11-12T14:58:12.536Z,24.87
2022-11-12T15:00:12.563Z,24.85
2022-11-12T15:02:36.856Z,24.82
2022-11-12T15:04:12.442Z,24.80
2022-11-12T15:06:12.480Z,24.80
2022-11-12T15:08:12.612Z,24.75
2022-11-12T15:10:12.544Z,24.66
2022-11-12T15:12:12.393Z,24.66
2022-11-12T15:14:12.548Z,24.65
2022-11-12T15:16:12.468Z,24.55
2022-11-12T15:18:12.572Z,24.61
2022-11-12T15:20:12.577Z,24.66
2022-11-12T15:22:12.571Z,24.59
2022-11-12T15:24:12.545Z,24.52
2022-11-12T15:26:14.222Z,24.64
2022-11-12T15:28:12.574Z,24.52
2022-11-12T15:30:12.557Z,24.48
2022-11-12T15:32:13.952Z,24.38
2022-11-12T15:34:12.458Z,24.38
2022-11-12T15:36:12.486Z,24.34
2022-11-12T15:38:12.475Z,24.34
2022-11-12T15:40:12.583Z,24.23
2022-11-12T15:42:12.488Z,24.24
2022-11-12T15:44:12.566Z,24.24
2022-11-12T15:46:12.511Z,24.23
2022-11-12T15:48:12.613Z,24.12
2022-11-12T15:50:12.464Z,24.15
2022-11-12T15:52:12.557Z,24.21
2022-11-12T15:54:12.592Z,24.07
2022-11-12T15:56:12.623Z,24.08
2022-11-12T15:58:12.540Z,23.81
2022-11-12T16:00:12.499Z,23.89
2022-11-12T16:02:12.471Z,24.19
2022-11-12T16:04:12.601Z,24.20
2022-11-12T16:06:12.604Z,24.27
2022-11-12T16:08:12.471Z,24.25
2022-11-12T16:10:12.642Z,24.29
2022-11-12T16:12:12.511Z,24.27
2022-11-12T16:14:12.521Z,24.30
2022-11-12T16:16:12.613Z,24.22
2022-11-12T16:18:12.636Z,24.32
2022-11-12T16:20:12.624Z,24.27
2022-11-12T16:22:12.698Z,24.24
2022-11-12T16:24:12.619Z,24.25
2022-11-12T16:26:12.494Z,24.21
2022-11-12T16:28:12.619Z,24.26
2022-11-12T16:30:12.648Z,24.12
2022-11-12T16:32:12.670Z,24.16
2022-11-12T16:34:12.625Z,24.12
2022-11-12T16:36:12.653Z,24.20
2022-11-12T16:38:12.570Z,24.18
2022-11-12T16:40:12.655Z,24.20
2022-11-12T16:42:12.463Z,24.12
2022-11-12T16:44:12.641Z,24.12
2022-11-12T16:46:12.652Z,24.12
2022-11-12T16:48:12.483Z,24.12
2022-11-12T16:50:12.670Z,24.11
2022-11-12T16:52:12.644Z,24.18
2022-11-12T16:54:12.648Z,24.12
2022-11-12T16:56:12.587Z,24.10
2022-11-12T16:58:12.658Z,24.10
2022-11-12T17:00:12.671Z,24.12
2022-11-12T17:02:12.623Z,24.10
2022-11-12T17:04:12.649Z,24.16
2022-11-12T17:06:12.673Z,24.10
2022-11-12T17:08:12.676Z,24.09
2022-11-12T17:10:12.672Z,24.09
2022-11-12T17:12:12.587Z,24.12
2022-11-12T17:14:12.676Z,23.93
2022-11-12T17:16:12.878Z,23.95
2022-11-12T17:18:12.670Z,23.96
2022-11-12T17:20:12.776Z,24.01
2022-11-12T17:22:12.690Z,24.02
2022-11-12T17:24:12.680Z,23.98
2022-11-12T17:26:12.607Z,24.01
2022-11-12T17:28:12.702Z,23.84
2022-11-12T17:30:12.685Z,23.95
2022-11-12T17:32:12.700Z,24.02
2022-11-12T17:34:12.719Z,24.07
2022-11-12T17:36:12.680Z,23.96
2022-11-12T17:38:12.700Z,24.03
2022-11-12T17:40:12.705Z,24.01
2022-11-12T17:42:12.672Z,24.04
2022-11-12T17:44:12.626Z,24.02
2022-11-12T17:46:12.617Z,23.98
2022-11-12T17:48:12.614Z,23.96
2022-11-12T17:50:12.706Z,24.05
2022-11-12T17:52:12.644Z,23.98
2022-11-12T17:54:12.628Z,23.92
2022-11-12T17:56:12.738Z,23.90
2022-11-12T17:58:12.749Z,23.96
2022-11-12T18:00:12.633Z,23.94
2022-11-12T18:02:12.718Z,23.95
2022-11-12T18:04:12.732Z,24.01
2022-11-12T18:06:12.745Z,23.96
2022-11-12T18:08:12.643Z,23.96
2022-11-12T18:10:18.371Z,23.97
2022-11-12T18:12:12.623Z,23.93
2022-11-12T18:14:12.704Z,23.94
2022-11-12T18:16:14.758Z,23.88
2022-11-12T18:18:12.737Z,23.90
2022-11-12T18:20:12.736Z,23.85
2022-11-12T18:22:12.713Z,23.91
2022-11-12T18:24:12.730Z,23.84
2022-11-12T18:26:12.597Z,23.95
2022-11-12T18:28:12.743Z,23.94
2022-11-12T18:30:17.933Z,23.82
2022-11-12T18:32:12.747Z,23.65
2022-11-12T18:34:12.729Z,23.81
2022-11-12T18:36:12.816Z,23.81
2022-11-12T18:38:12.722Z,23.87
2022-11-12T18:40:12.601Z,23.81
2022-11-12T18:42:12.688Z,23.91
2022-11-12T18:44:12.769Z,23.96
2022-11-12T18:46:12.776Z,23.81
2022-11-12T18:48:12.778Z,23.85
2022-11-12T18:50:12.642Z,23.88
2022-11-12T18:52:12.716Z,23.84
2022-11-12T18:54:12.775Z,23.81
2022-11-12T18:56:12.701Z,23.96
2022-11-12T18:58:12.789Z,23.83
2022-11-12T19:00:12.681Z,23.84
2022-11-12T19:02:12.803Z,23.92
2022-11-12T19:04:12.785Z,23.86
2022-11-12T19:06:12.776Z,23.83
2022-11-12T19:08:12.745Z,23.81
2022-11-12T19:10:15.133Z,23.84
2022-11-12T19:12:12.812Z,23.88
2022-11-12T19:14:12.797Z,23.88
2022-11-12T19:16:12.707Z,23.82
2022-11-12T19:18:12.811Z,23.80
2022-11-12T19:20:12.710Z,23.76
2022-11-12T19:22:12.811Z,23.82
2022-11-12T19:24:12.784Z,23.81
2022-11-12T19:26:12.808Z,23.82
2022-11-12T19:28:12.749Z,23.84
2022-11-12T19:30:12.815Z,23.81
2022-11-12T19:32:12.819Z,23.81
2022-11-12T19:34:12.841Z,23.84
2022-11-12T19:36:12.862Z,23.81
2022-11-12T19:38:12.867Z,23.81
2022-11-12T19:40:12.863Z,23.79
2022-11-12T19:42:12.891Z,23.81
2022-11-12T19:44:12.880Z,23.79
2022-11-12T19:46:12.852Z,23.86
2022-11-12T19:48:12.767Z,23.81
2022-11-12T19:50:12.854Z,23.76
2022-11-12T19:52:12.873Z,23.79
2022-11-12T19:54:12.746Z,23.81
2022-11-12T19:56:12.851Z,23.81
2022-11-12T19:58:12.704Z,23.79
2022-11-12T20:00:12.799Z,23.81
2022-11-12T20:02:12.855Z,23.69
2022-11-12T20:04:12.816Z,23.34
2022-11-12T20:06:12.946Z,23.57
2022-11-12T20:08:12.922Z,23.73
2022-11-12T20:10:12.861Z,23.77
2022-11-12T20:12:12.939Z,23.73
2022-11-12T20:14:12.794Z,23.79
2022-11-12T20:16:12.959Z,23.67
2022-11-12T20:18:12.784Z,23.47
2022-11-12T20:20:12.873Z,23.81
2022-11-12T20:22:12.952Z,23.77
2022-11-12T20:24:12.922Z,23.78
2022-11-12T20:26:12.964Z,23.75
2022-11-12T20:28:12.869Z,23.81
2022-11-12T20:30:13.183Z,23.73
2022-11-12T20:32:12.958Z,23.76
2022-11-12T20:34:12.977Z,23.81
2022-11-12T20:36:13.019Z,23.70
2022-11-12T20:38:12.805Z,23.70
2022-11-12T20:40:12.921Z,23.72
2022-11-12T20:42:12.999Z,23.73
2022-11-12T20:44:12.950Z,23.70
2022-11-12T20:46:12.852Z,23.73
2022-11-12T20:48:12.939Z,23.76
2022-11-12T20:50:12.810Z,23.66
2022-11-12T20:52:12.924Z,23.81
2022-11-12T20:54:13.161Z,23.73
2022-11-12T20:56:12.879Z,23.63
2022-11-12T20:58:12.821Z,23.65
2022-11-12T21:00:14.750Z,23.68
2022-11-12T21:02:12.899Z,23.70
2022-11-12T21:04:12.864Z,23.68
2022-11-12T21:06:12.951Z,23.79
2022-11-12T21:08:13.036Z,23.73
2022-11-12T21:10:12.943Z,23.69
2022-11-12T21:12:12.787Z,23.70
2022-11-12T21:14:12.983Z,23.62
2022-11-12T21:16:12.929Z,23.76
2022-11-12T21:18:12.823Z,23.69
2022-11-12T21:20:12.953Z,23.67
2022-11-12T21:22:12.813Z,23.73
2022-11-12T21:24:12.939Z,23.65
2022-11-12T21:26:12.880Z,23.73
2022-11-12T21:28:12.843Z,23.65
2022-11-12T21:30:12.950Z,23.65
2022-11-12T21:32:12.811Z,23.62
2022-11-12T21:34:12.962Z,23.67
2022-11-12T21:36:16.350Z,23.59
2022-11-12T21:38:12.988Z,23.70
2022-11-12T21:40:13.047Z,23.68
2022-11-12T21:42:12.968Z,23.76
2022-11-12T21:44:12.974Z,23.64
2022-11-12T21:46:13.002Z,23.65
2022-11-12T21:48:12.892Z,23.57
2022-11-12T21:50:12.975Z,23.54
2022-11-12T21:52:12.820Z,23.55
2022-11-12T21:54:12.855Z,23.65
2022-11-12T21:56:12.909Z,23.62
2022-11-12T21:58:12.861Z,23.65
2022-11-12T22:00:40.462Z,23.55
2022-11-12T22:02:13.019Z,23.63
2022-11-12T22:04:17.971Z,23.68
2022-11-12T22:06:13.012Z,23.65
2022-11-12T22:08:12.996Z,23.62
2022-11-12T22:10:12.911Z,23.62
2022-11-12T22:12:12.924Z,23.34
2022-11-12T22:14:12.997Z,23.62
2022-11-12T22:16:13.007Z,23.53
2022-11-12T22:18:12.906Z,23.55
2022-11-12T22:20:13.048Z,23.54
2022-11-12T22:22:12.978Z,23.57
2022-11-12T22:24:12.888Z,23.56
2022-11-12T22:26:13.019Z,23.65
2022-11-12T22:28:13.007Z,23.55
2022-11-12T22:30:12.938Z,23.53
2022-11-12T22:32:12.871Z,23.53
2022-11-12T22:34:13.078Z,23.54
2022-11-12T22:36:12.922Z,23.52
2022-11-12T22:38:13.040Z,23.43
2022-11-12T22:40:13.602Z,23.24
2022-11-12T22:42:13.098Z,23.55
2022-11-12T22:44:12.947Z,23.53
2022-11-12T22:46:13.088Z,23.53
2022-11-12T22:48:13.019Z,23.52
2022-11-12T22:50:12.941Z,23.65
2022-11-12T22:52:13.047Z,23.55
2022-11-12T22:54:13.029Z,23.55
2022-11-12T22:56:12.957Z,23.61
2022-11-12T22:58:13.026Z,23.53
2022-11-12T23:00:13.094Z,23.57
2022-11-12T23:02:13.055Z,23.53
2022-11-12T23:04:12.945Z,23.53
2022-11-12T23:06:12.945Z,23.59
2022-11-12T23:08:13.061Z,23.53
2022-11-12T23:10:12.917Z,23.53
2022-11-12T23:12:12.948Z,23.51
2022-11-12T23:14:13.075Z,23.49
2022-11-12T23:16:13.097Z,23.56
2022-11-12T23:18:13.092Z,23.50
2022-11-12T23:20:13.073Z,23.53
2022-11-12T23:22:12.945Z,23.57
2022-11-12T23:24:13.043Z,23.51
2022-11-12T23:26:13.114Z,23.52
2022-11-12T23:28:12.983Z,23.49
2022-11-12T23:30:13.084Z,23.44
2022-11-12T23:32:13.098Z,23.49
2022-11-12T23:34:13.064Z,23.49
2022-11-12T23:36:12.975Z,23.49
2022-11-12T23:38:13.059Z,23.44
2022-11-12T23:40:13.057Z,23.47
2022-11-12T23:42:13.082Z,23.49
2022-11-12T23:44:13.108Z,23.50
2022-11-12T23:46:13.115Z,23.45
2022-11-12T23:48:12.928Z,23.47
2022-11-12T23:50:13.068Z,23.51
2022-11-12T23:52:13.082Z,23.13
2022-11-12T23:54:13.141Z,23.23
2022-11-12T23:56:13.109Z,23.12
2022-11-12T23:58:12.949Z,23.36
